createdAt,value
2018-06-24T00:02:15.558Z,8.60
2018-06-24T00:04:44.038Z,9.30
2018-06-24T00:07:12.532Z,8.70
2018-06-24T00:09:40.979Z,9.43
2018-06-24T00:12:09.680Z,9.23
2018-06-24T00:14:38.162Z,11.10
2018-06-24T00:17:06.672Z,10.90
2018-06-24T00:19:35.127Z,9.57
2018-06-24T00:22:03.607Z,8.73
2018-06-24T00:24:32.036Z,9.23
2018-06-24T00:27:00.489Z,8.37
2018-06-24T00:29:28.911Z,10.90
2018-06-24T00:31:57.448Z,9.93
2018-06-24T00:34:26.082Z,10.00
2018-06-24T00:36:54.560Z,9.67
2018-06-24T00:39:23.040Z,9.90
2018-06-24T00:41:51.448Z,9.60
2018-06-24T00:44:20.013Z,9.50
2018-06-24T00:46:48.431Z,10.17
2018-06-24T00:49:16.870Z,9.70
2018-06-24T00:51:45.327Z,10.67
2018-06-24T00:54:13.776Z,10.20
2018-06-24T00:56:42.284Z,10.20
2018-06-24T00:59:20.960Z,9.87
2018-06-24T01:01:49.380Z,9.90
2018-06-24T01:04:17.792Z,10.77
2018-06-24T01:06:46.534Z,10.50
2018-06-24T01:09:15.092Z,11.10
2018-06-24T01:11:43.516Z,11.03
2018-06-24T01:14:11.972Z,10.70
2018-06-24T01:16:40.452Z,10.40
2018-06-24T01:19:09.000Z,10.00
2018-06-24T01:21:37.640Z,10.83
2018-06-24T01:24:06.066Z,10.83
2018-06-24T01:26:34.930Z,10.87
2018-06-24T01:29:03.496Z,10.57
2018-06-24T01:31:31.952Z,10.10
2018-06-24T01:34:00.376Z,12.33
2018-06-24T01:36:29.022Z,9.90
2018-06-24T01:38:57.485Z,10.80
2018-06-24T01:41:25.882Z,10.73
2018-06-24T01:43:54.620Z,11.30
2018-06-24T01:46:23.160Z,11.23
2018-06-24T01:48:51.579Z,10.40
2018-06-24T01:51:20.556Z,10.70
2018-06-24T01:53:49.009Z,11.57
2018-06-24T01:56:17.491Z,11.50
2018-06-24T01:58:45.915Z,10.23
2018-06-24T02:01:14.458Z,10.47
2018-06-24T02:03:43.157Z,10.70
2018-06-24T02:06:11.663Z,11.00
2018-06-24T02:08:40.135Z,11.47
2018-06-24T02:11:08.549Z,10.87
2018-06-24T02:13:38.000Z,11.07
2018-06-24T02:16:06.871Z,10.83
2018-06-24T02:18:35.355Z,11.28
2018-06-24T02:21:03.775Z,9.80
2018-06-24T02:23:32.214Z,10.87
2018-06-24T02:26:00.676Z,9.93
2018-06-24T02:28:29.133Z,10.50
2018-06-24T02:30:57.599Z,10.43
2018-06-24T02:33:26.034Z,9.63
2018-06-24T02:35:54.474Z,10.47
2018-06-24T02:38:22.931Z,10.83
2018-06-24T02:40:51.486Z,10.97
2018-06-24T02:43:19.904Z,10.23
2018-06-24T02:45:48.449Z,9.57
2018-06-24T02:48:16.909Z,9.60
2018-06-24T02:50:45.325Z,9.30
2018-06-24T02:53:13.771Z,9.93
2018-06-24T02:55:42.187Z,10.07
2018-06-24T02:58:10.607Z,10.80
2018-06-24T03:00:39.075Z,11.63
2018-06-24T03:03:07.565Z,11.53
2018-06-24T03:05:41.867Z,9.87
2018-06-24T03:08:10.287Z,10.20
2018-06-24T03:10:38.919Z,9.80
2018-06-24T03:13:07.424Z,10.07
2018-06-24T03:15:35.850Z,11.00
2018-06-24T03:18:04.339Z,9.13
2018-06-24T03:20:32.811Z,8.60
2018-06-24T03:23:01.315Z,10.27
2018-06-24T03:25:29.767Z,9.87
2018-06-24T03:27:58.251Z,10.60
2018-06-24T03:30:26.700Z,10.57
2018-06-24T03:32:55.291Z,10.83
2018-06-24T03:35:23.673Z,10.37
2018-06-24T03:37:52.406Z,10.47
2018-06-24T03:40:20.835Z,10.67
2018-06-24T03:42:49.263Z,11.00
2018-06-24T03:45:17.689Z,11.40
2018-06-24T03:47:46.251Z,10.93
2018-06-24T03:50:14.815Z,9.70
2018-06-24T03:52:43.343Z,10.60
2018-06-24T03:55:11.933Z,11.70
2018-06-24T03:57:40.349Z,15.43
2018-06-24T04:00:09.275Z,13.67
2018-06-24T04:02:37.725Z,11.37
2018-06-24T04:05:06.291Z,11.60
2018-06-24T04:07:34.898Z,12.43
2018-06-24T04:10:03.376Z,11.80
2018-06-24T04:12:31.880Z,11.15
2018-06-24T04:15:00.311Z,12.10
2018-06-24T04:17:28.726Z,11.53
2018-06-24T04:19:57.127Z,10.87
2018-06-24T04:22:25.599Z,10.80
2018-06-24T04:24:54.054Z,10.87
2018-06-24T04:27:22.511Z,10.30
2018-06-24T04:29:51.093Z,12.30
2018-06-24T04:32:19.525Z,11.83
2018-06-24T04:34:47.943Z,10.53
2018-06-24T04:37:17.050Z,10.30
2018-06-24T04:39:45.524Z,10.43
2018-06-24T04:42:13.916Z,9.30
2018-06-24T04:44:42.360Z,10.40
2018-06-24T04:47:10.792Z,10.17
2018-06-24T04:49:39.246Z,10.83
2018-06-24T04:52:07.356Z,10.80
2018-06-24T04:54:35.860Z,10.50
2018-06-24T04:57:04.460Z,11.03
2018-06-24T04:59:32.923Z,11.90
2018-06-24T05:02:01.388Z,11.40
2018-06-24T05:04:29.776Z,10.00
2018-06-24T05:06:58.378Z,10.40
2018-06-24T05:09:26.892Z,10.80
2018-06-24T05:11:55.332Z,11.37
2018-06-24T05:14:23.765Z,12.40
2018-06-24T05:16:52.248Z,10.60
2018-06-24T05:19:20.717Z,10.93
2018-06-24T05:21:49.192Z,12.13
2018-06-24T05:24:17.652Z,10.73
2018-06-24T05:26:46.075Z,11.10
2018-06-24T05:29:14.595Z,11.10
2018-06-24T05:31:43.101Z,11.57
2018-06-24T05:34:11.576Z,12.60
2018-06-24T05:36:41.385Z,10.80
2018-06-24T05:39:11.487Z,13.10
2018-06-24T05:41:39.919Z,11.93
2018-06-24T05:44:08.439Z,11.50
2018-06-24T05:46:36.852Z,12.23
2018-06-24T05:49:05.633Z,13.03
2018-06-24T05:51:34.041Z,13.93
2018-06-24T05:54:02.550Z,15.50
2018-06-24T05:56:31.013Z,14.20
2018-06-24T05:58:59.433Z,16.73
2018-06-24T06:01:27.976Z,16.57
2018-06-24T06:03:56.541Z,17.13
2018-06-24T06:06:24.965Z,17.57
2018-06-24T06:08:53.603Z,17.93
2018-06-24T06:11:22.556Z,18.07
2018-06-24T06:13:51.132Z,18.37
2018-06-24T06:16:20.547Z,18.53
2018-06-24T06:18:49.034Z,19.33
2018-06-24T06:21:17.495Z,20.30
2018-06-24T06:23:46.016Z,20.13
2018-06-24T06:26:14.456Z,20.60
2018-06-24T06:28:42.949Z,20.77
2018-06-24T06:31:11.427Z,20.97
2018-06-24T06:33:39.862Z,21.03
2018-06-24T06:36:08.484Z,17.97
2018-06-24T06:38:36.994Z,18.93
2018-06-24T06:41:05.574Z,20.30
2018-06-24T06:43:33.756Z,18.87
2018-06-24T06:46:02.220Z,20.00
2018-06-24T06:48:30.638Z,21.10
2018-06-24T06:50:59.121Z,21.13
2018-06-24T06:53:27.563Z,20.60
2018-06-24T06:55:55.996Z,19.37
2018-06-24T06:58:24.483Z,20.60
2018-06-24T07:00:52.974Z,20.00
2018-06-24T07:03:21.431Z,20.80
2018-06-24T07:05:49.955Z,21.80
2018-06-24T07:08:18.420Z,19.53
2018-06-24T07:10:46.865Z,18.30
2018-06-24T07:13:15.351Z,18.20
2018-06-24T07:15:43.876Z,17.57
2018-06-24T07:18:12.332Z,17.50
2018-06-24T07:20:40.900Z,17.83
2018-06-24T07:23:09.307Z,18.00
2018-06-24T07:25:37.723Z,16.97
2018-06-24T07:28:06.477Z,16.27
2018-06-24T07:30:35.099Z,13.50
2018-06-24T07:33:03.597Z,14.70
2018-06-24T07:35:32.077Z,12.10
2018-06-24T07:38:00.656Z,11.70
2018-06-24T07:40:29.187Z,10.23
2018-06-24T07:42:57.709Z,11.00
2018-06-24T07:45:26.135Z,10.30
2018-06-24T07:47:54.635Z,10.00
2018-06-24T07:50:23.200Z,12.07
2018-06-24T07:52:51.568Z,9.83
2018-06-24T07:55:20.213Z,9.97
2018-06-24T07:57:48.909Z,8.07
2018-06-24T08:00:17.625Z,10.20
2018-06-24T08:02:46.016Z,9.60
2018-06-24T08:05:14.606Z,10.37
2018-06-24T08:07:43.038Z,9.27
2018-06-24T08:10:11.482Z,9.17
2018-06-24T08:12:39.912Z,10.40
2018-06-24T08:15:08.385Z,9.90
2018-06-24T08:17:36.799Z,9.60
2018-06-24T08:20:05.516Z,10.50
2018-06-24T08:22:34.036Z,11.10
2018-06-24T08:25:02.547Z,8.50
2018-06-24T08:27:31.029Z,10.93
2018-06-24T08:29:59.469Z,9.13
2018-06-24T08:32:27.876Z,10.00
2018-06-24T08:34:56.329Z,8.90
2018-06-24T08:37:24.809Z,8.20
2018-06-24T08:39:53.307Z,9.07
2018-06-24T08:42:27.987Z,9.47
2018-06-24T08:44:56.455Z,9.30
2018-06-24T08:47:24.880Z,8.43
2018-06-24T08:49:53.407Z,9.00
2018-06-24T08:52:21.891Z,8.70
2018-06-24T08:54:50.360Z,9.33
2018-06-24T08:57:18.863Z,8.50
2018-06-24T08:59:47.401Z,8.63
2018-06-24T09:02:15.917Z,8.87
2018-06-24T09:04:44.327Z,9.67
2018-06-24T09:07:12.867Z,11.17
2018-06-24T09:09:41.677Z,10.70
2018-06-24T09:12:10.075Z,9.40
2018-06-24T09:14:38.580Z,9.60
2018-06-24T09:17:07.071Z,9.60
2018-06-24T09:19:35.640Z,8.87
2018-06-24T09:22:04.629Z,10.77
2018-06-24T09:24:33.196Z,11.03
2018-06-24T09:27:01.780Z,10.50
2018-06-24T09:29:30.599Z,11.93
2018-06-24T09:31:59.360Z,9.77
2018-06-24T09:34:27.939Z,12.40
2018-06-24T09:36:56.411Z,11.03
2018-06-24T09:39:24.931Z,10.53
2018-06-24T09:41:53.348Z,11.93
2018-06-24T09:44:21.937Z,12.13
2018-06-24T09:46:50.361Z,12.60
2018-06-24T09:49:19.781Z,10.60
2018-06-24T09:51:49.109Z,10.00
2018-06-24T09:54:18.057Z,9.57
2018-06-24T09:56:47.609Z,12.33
2018-06-24T09:59:16.309Z,12.00
2018-06-24T10:01:44.787Z,12.53
2018-06-24T10:04:13.244Z,11.90
2018-06-24T10:06:42.831Z,10.33
2018-06-24T10:09:11.880Z,9.77
2018-06-24T10:11:40.334Z,9.53
2018-06-24T10:14:09.738Z,11.30
2018-06-24T10:16:38.356Z,10.53
2018-06-24T10:19:06.824Z,9.30
2018-06-24T10:21:35.259Z,9.60
2018-06-24T10:24:03.820Z,9.10
2018-06-24T10:26:32.219Z,7.90
2018-06-24T10:29:00.679Z,8.30
2018-06-24T10:31:29.129Z,8.00
2018-06-24T10:33:57.569Z,7.83
2018-06-24T10:36:26.023Z,9.17
2018-06-24T10:38:54.539Z,9.33
2018-06-24T10:41:23.985Z,10.03
2018-06-24T10:43:52.439Z,8.40
2018-06-24T10:46:21.101Z,7.63
2018-06-24T10:48:49.581Z,6.13
2018-06-24T10:51:18.023Z,6.13
2018-06-24T10:53:46.585Z,6.70
2018-06-24T10:56:15.077Z,6.20
2018-06-24T10:58:43.544Z,6.13
2018-06-24T11:01:12.010Z,5.60
2018-06-24T11:03:40.652Z,6.20
2018-06-24T11:06:10.072Z,5.27
2018-06-24T11:08:39.436Z,6.10
2018-06-24T11:11:08.034Z,4.43
2018-06-24T11:13:36.570Z,4.87
2018-06-24T11:16:05.270Z,4.97
2018-06-24T11:18:33.749Z,5.10
2018-06-24T11:21:02.205Z,4.83
2018-06-24T11:23:30.764Z,4.73
2018-06-24T11:25:59.320Z,5.00
2018-06-24T11:28:29.361Z,5.07
2018-06-24T11:30:58.226Z,5.13
2018-06-24T11:33:26.736Z,3.87
2018-06-24T11:35:55.167Z,4.53
2018-06-24T11:38:23.463Z,4.03
2018-06-24T11:40:51.967Z,8.37
2018-06-24T11:43:20.537Z,4.37
2018-06-24T11:45:48.975Z,4.63
2018-06-24T11:48:17.441Z,4.70
2018-06-24T11:50:46.074Z,4.03
2018-06-24T11:53:14.589Z,4.23
2018-06-24T11:55:43.078Z,4.40
2018-06-24T11:58:11.547Z,5.03
2018-06-24T12:00:40.530Z,4.53
2018-06-24T12:03:09.072Z,5.87
2018-06-24T12:05:37.549Z,4.10
2018-06-24T12:08:06.448Z,6.13
2018-06-24T12:10:35.007Z,8.80
2018-06-24T12:13:03.623Z,3.70
2018-06-24T12:15:32.094Z,4.97
2018-06-24T12:18:00.527Z,4.17
2018-06-24T12:20:29.041Z,3.57
2018-06-24T12:22:57.496Z,3.43
2018-06-24T12:25:26.002Z,3.80
2018-06-24T12:27:54.453Z,2.43
2018-06-24T12:30:23.115Z,2.80
2018-06-24T12:32:52.493Z,2.83
2018-06-24T12:35:20.940Z,3.17
2018-06-24T12:37:49.348Z,4.10
2018-06-24T12:40:22.056Z,3.47
2018-06-24T12:42:50.478Z,3.23
2018-06-24T12:45:19.110Z,2.87
2018-06-24T12:47:47.570Z,2.90
2018-06-24T12:50:16.062Z,3.30
2018-06-24T12:52:44.580Z,2.80
2018-06-24T12:55:13.200Z,2.63
2018-06-24T12:57:41.859Z,2.93
2018-06-24T13:00:10.541Z,2.90
2018-06-24T13:02:39.051Z,3.00
2018-06-24T13:05:07.820Z,3.23
2018-06-24T13:07:36.592Z,3.07
2018-06-24T13:10:05.804Z,3.00
2018-06-24T13:12:34.236Z,2.90
2018-06-24T13:15:02.850Z,3.13
2018-06-24T13:17:31.480Z,3.70
2018-06-24T13:19:59.912Z,3.37
2018-06-24T13:22:28.340Z,3.53
2018-06-24T13:24:56.749Z,3.40
2018-06-24T13:27:25.234Z,3.40
2018-06-24T13:29:54.516Z,3.93
2018-06-24T13:32:23.039Z,3.60
2018-06-24T13:34:51.495Z,2.93
2018-06-24T13:37:20.176Z,3.60
2018-06-24T13:39:48.615Z,3.03
2018-06-24T13:42:17.142Z,3.13
2018-06-24T13:44:46.581Z,3.30
2018-06-24T13:47:15.119Z,2.73
2018-06-24T13:49:43.626Z,2.83
2018-06-24T13:52:12.031Z,3.30
2018-06-24T13:54:40.600Z,4.77
2018-06-24T13:57:09.144Z,4.13
2018-06-24T13:59:37.744Z,3.53
2018-06-24T14:02:06.204Z,3.83
2018-06-24T14:04:34.599Z,3.50
2018-06-24T14:07:03.136Z,4.10
2018-06-24T14:09:31.538Z,3.50
2018-06-24T14:12:00.098Z,3.50
2018-06-24T14:14:28.602Z,3.33
2018-06-24T14:16:57.037Z,3.53
2018-06-24T14:19:29.583Z,3.10
2018-06-24T14:21:58.028Z,3.20
2018-06-24T14:24:26.471Z,3.53
2018-06-24T14:26:54.941Z,5.70
2018-06-24T14:29:23.349Z,3.00
2018-06-24T14:31:51.754Z,3.50
2018-06-24T14:34:20.181Z,4.20
2018-06-24T14:36:48.740Z,3.93
2018-06-24T14:39:17.685Z,4.57
2018-06-24T14:41:46.178Z,4.10
2018-06-24T14:44:14.597Z,3.87
2018-06-24T14:46:44.192Z,4.63
2018-06-24T14:49:12.658Z,4.20
2018-06-24T14:51:41.406Z,3.90
2018-06-24T14:54:10.441Z,4.77
2018-06-24T14:56:38.820Z,4.67
2018-06-24T14:59:07.855Z,4.70
2018-06-24T15:01:36.414Z,4.80
2018-06-24T15:04:04.845Z,4.73
2018-06-24T15:06:33.741Z,5.33
2018-06-24T15:09:02.236Z,5.53
2018-06-24T15:11:30.661Z,4.80
2018-06-24T15:13:59.570Z,4.80
2018-06-24T15:16:28.046Z,5.30
2018-06-24T15:18:56.511Z,5.87
2018-06-24T15:21:24.947Z,5.20
2018-06-24T15:23:53.417Z,5.53
2018-06-24T15:26:21.872Z,5.70
2018-06-24T15:28:51.090Z,4.97
2018-06-24T15:31:19.790Z,4.77
2018-06-24T15:33:48.198Z,6.17
2018-06-24T15:36:16.684Z,5.40
2018-06-24T15:38:45.049Z,6.33
2018-06-24T15:41:13.581Z,6.10
2018-06-24T15:43:42.008Z,5.90
2018-06-24T15:46:10.852Z,7.00
2018-06-24T15:48:42.848Z,7.97
2018-06-24T15:51:17.445Z,7.43
2018-06-24T15:53:46.116Z,6.43
2018-06-24T15:56:14.545Z,7.30
2018-06-24T15:58:43.009Z,7.47
2018-06-24T16:01:11.758Z,7.53
2018-06-24T16:03:40.185Z,17.57
2018-06-24T16:06:09.524Z,7.40
2018-06-24T16:08:37.951Z,5.77
2018-06-24T16:11:06.501Z,6.20
2018-06-24T16:13:35.040Z,6.63
2018-06-24T16:16:03.476Z,6.87
2018-06-24T16:18:32.134Z,6.60
2018-06-24T16:21:01.162Z,8.10
2018-06-24T16:23:29.654Z,10.20
2018-06-24T16:25:58.228Z,23.33
2018-06-24T16:28:26.691Z,7.70
2018-06-24T16:30:55.129Z,8.33
2018-06-24T16:33:23.651Z,11.70
2018-06-24T16:35:52.131Z,7.37
2018-06-24T16:38:20.854Z,14.07
2018-06-24T16:40:49.284Z,11.80
2018-06-24T16:43:17.754Z,16.70
2018-06-24T16:45:46.224Z,12.50
2018-06-24T16:48:14.760Z,7.13
2018-06-24T16:50:43.425Z,6.43
2018-06-24T16:53:11.840Z,7.00
2018-06-24T16:55:40.284Z,7.70
2018-06-24T16:58:08.978Z,7.50
2018-06-24T17:00:37.488Z,11.90
2018-06-24T17:03:06.473Z,10.07
2018-06-24T17:05:35.020Z,14.40
2018-06-24T17:08:03.497Z,10.10
2018-06-24T17:10:32.115Z,8.07
2018-06-24T17:13:00.646Z,7.23
2018-06-24T17:15:29.214Z,6.57
2018-06-24T17:17:57.757Z,13.27
2018-06-24T17:20:26.189Z,9.77
2018-06-24T17:22:55.949Z,7.00
2018-06-24T17:25:24.686Z,6.57
2018-06-24T17:27:53.176Z,7.13
2018-06-24T17:30:21.688Z,5.83
2018-06-24T17:32:50.115Z,6.43
2018-06-24T17:35:18.536Z,6.83
2018-06-24T17:37:47.066Z,6.03
2018-06-24T17:40:15.481Z,6.70
2018-06-24T17:42:43.944Z,6.90
2018-06-24T17:45:12.389Z,6.93
2018-06-24T17:47:40.817Z,8.30
2018-06-24T17:50:09.291Z,7.50
2018-06-24T17:52:37.713Z,6.70
2018-06-24T17:55:06.201Z,9.47
2018-06-24T17:57:34.689Z,7.73
2018-06-24T18:00:03.458Z,8.60
2018-06-24T18:02:31.909Z,7.37
2018-06-24T18:05:00.381Z,7.40
2018-06-24T18:07:29.030Z,8.57
2018-06-24T18:09:57.486Z,7.67
2018-06-24T18:12:25.926Z,7.53
2018-06-24T18:14:54.508Z,6.27
2018-06-24T18:17:23.131Z,7.57
2018-06-24T18:19:53.561Z,7.60
2018-06-24T18:22:22.509Z,6.90
2018-06-24T18:24:50.944Z,6.60
2018-06-24T18:27:19.277Z,5.50
2018-06-24T18:29:48.514Z,7.80
2018-06-24T18:32:16.796Z,7.30
2018-06-24T18:34:45.759Z,6.50
2018-06-24T18:37:14.370Z,6.90
2018-06-24T18:39:42.551Z,6.50
2018-06-24T18:42:10.917Z,6.50
2018-06-24T18:44:39.376Z,7.70
2018-06-24T18:47:07.876Z,13.50
2018-06-24T18:49:36.417Z,7.93
2018-06-24T18:52:04.944Z,7.43
2018-06-24T18:54:33.147Z,12.80
2018-06-24T18:57:02.618Z,8.97
2018-06-24T18:59:31.132Z,7.53
2018-06-24T19:01:59.368Z,7.60
2018-06-24T19:04:27.791Z,8.70
2018-06-24T19:06:56.330Z,6.90
2018-06-24T19:09:25.114Z,7.70
2018-06-24T19:11:53.532Z,7.40
2018-06-24T19:14:22.042Z,7.30
2018-06-24T19:16:50.657Z,7.40
2018-06-24T19:19:19.164Z,7.60
2018-06-24T19:21:47.777Z,7.80
2018-06-24T19:24:16.577Z,8.67
2018-06-24T19:26:45.139Z,6.60
2018-06-24T19:29:13.584Z,7.60
2018-06-24T19:31:42.741Z,6.87
2018-06-24T19:34:11.144Z,6.30
2018-06-24T19:36:40.200Z,7.60
2018-06-24T19:39:11.522Z,6.90
2018-06-24T19:41:40.103Z,6.23
2018-06-24T19:44:08.681Z,7.20
2018-06-24T19:46:37.160Z,7.50
2018-06-24T19:49:05.685Z,11.80
2018-06-24T19:51:34.146Z,7.30
2018-06-24T19:54:02.300Z,7.77
2018-06-24T19:56:30.753Z,6.93
2018-06-24T19:59:00.341Z,6.80
2018-06-24T20:01:29.273Z,6.50
2018-06-24T20:03:57.976Z,7.80
2018-06-24T20:06:26.460Z,7.90
2018-06-24T20:08:55.113Z,8.97
2018-06-24T20:11:23.551Z,6.60
2018-06-24T20:13:52.750Z,6.90
2018-06-24T20:16:21.450Z,6.37
2018-06-24T20:18:50.216Z,6.70
2018-06-24T20:21:18.636Z,6.30
2018-06-24T20:23:47.081Z,6.70
2018-06-24T20:26:15.564Z,7.00
2018-06-24T20:28:45.127Z,6.30
2018-06-24T20:31:13.585Z,6.30
2018-06-24T20:33:42.061Z,5.93
2018-06-24T20:36:10.517Z,5.17
2018-06-24T20:38:39.150Z,6.90
2018-06-24T20:41:07.321Z,6.67
2018-06-24T20:43:35.993Z,7.47
2018-06-24T20:46:04.591Z,7.27
2018-06-24T20:48:33.716Z,6.97
2018-06-24T20:51:04.248Z,7.40
2018-06-24T20:53:33.012Z,6.83
2018-06-24T20:56:01.422Z,8.77
2018-06-24T20:58:29.843Z,7.10
2018-06-24T21:00:58.505Z,8.93
2018-06-24T21:03:26.988Z,8.50
2018-06-24T21:05:55.380Z,7.80
2018-06-24T21:08:24.167Z,9.40
2018-06-24T21:10:52.707Z,9.23
2018-06-24T21:13:21.467Z,9.07
2018-06-24T21:15:49.974Z,9.17
2018-06-24T21:18:18.492Z,10.13
2018-06-24T21:20:47.096Z,9.53
2018-06-24T21:23:15.608Z,8.80
2018-06-24T21:25:44.084Z,9.50
2018-06-24T21:28:17.024Z,9.87
2018-06-24T21:30:45.500Z,9.47
2018-06-24T21:33:14.417Z,9.10
2018-06-24T21:35:42.885Z,9.37
2018-06-24T21:38:11.448Z,9.53
2018-06-24T21:40:39.954Z,9.10
2018-06-24T21:43:08.389Z,10.20
2018-06-24T21:45:36.827Z,8.70
2018-06-24T21:48:06.104Z,10.73
2018-06-24T21:50:34.700Z,11.00
2018-06-24T21:53:03.140Z,12.27
2018-06-24T21:55:31.768Z,11.00
2018-06-24T21:58:00.268Z,10.70
2018-06-24T22:00:28.926Z,11.30
2018-06-24T22:02:57.345Z,11.97
2018-06-24T22:05:26.039Z,11.53
2018-06-24T22:07:54.524Z,17.10
2018-06-24T22:10:23.276Z,20.07
2018-06-24T22:12:51.871Z,17.73
2018-06-24T22:15:20.495Z,13.57
2018-06-24T22:17:48.937Z,13.60
2018-06-24T22:20:17.127Z,11.03
2018-06-24T22:22:46.105Z,15.57
2018-06-24T22:25:14.276Z,12.00
2018-06-24T22:27:42.942Z,15.27
2018-06-24T22:30:11.440Z,17.03
2018-06-24T22:32:39.578Z,18.40
2018-06-24T22:35:08.013Z,24.00
2018-06-24T22:37:36.898Z,18.40
2018-06-24T22:40:05.446Z,18.03
2018-06-24T22:42:33.948Z,25.63
2018-06-24T22:45:02.119Z,21.47
2018-06-24T22:47:30.572Z,15.77
2018-06-24T22:49:59.020Z,12.60
2018-06-24T22:52:27.544Z,14.83
2018-06-24T22:54:56.268Z,13.10
2018-06-24T22:57:24.888Z,22.03
2018-06-24T23:00:15.344Z,18.20
2018-06-24T23:02:44.424Z,19.00
2018-06-24T23:05:13.552Z,14.40
2018-06-24T23:07:43.226Z,13.27
2018-06-24T23:10:12.412Z,14.13
2018-06-24T23:12:41.066Z,12.07
2018-06-24T23:15:10.675Z,13.17
2018-06-24T23:17:39.506Z,12.83
2018-06-24T23:20:08.807Z,12.60
2018-06-24T23:22:37.515Z,12.13
2018-06-24T23:25:06.159Z,12.43
2018-06-24T23:27:34.633Z,15.57
2018-06-24T23:30:03.202Z,13.60
2018-06-24T23:32:31.708Z,16.00
2018-06-24T23:35:00.608Z,14.13
2018-06-24T23:37:29.236Z,12.37
2018-06-24T23:39:57.750Z,10.47
2018-06-24T23:42:26.196Z,11.50
2018-06-24T23:44:54.671Z,10.23
2018-06-24T23:47:23.096Z,10.20
2018-06-24T23:49:51.628Z,9.77
2018-06-24T23:52:20.098Z,9.30
2018-06-24T23:54:48.592Z,9.50
2018-06-24T23:57:17.056Z,9.80
2018-06-24T23:59:45.477Z,9.77
